Hovedside
METAR-TAF:

METAR-TAF

Lufthavner :

Skavsta lufthavn

Stockholm-Skavsta, Sverige

breddegrad: 58-47N, lengdegrad: 016-55E, høyde over havet: 43 m

Gjeldene værobservasjon

Denne rapporten ble laget for 26 minutter siden, klokken 03:50 UTC
Vind 12 kt fra Nordvest
Temperatur 2°C
Luftfuktighet 75%
Trykk 999 hPa
Sikt 10 km eller mer
ingen skyer under 1500 m og ingen bygeskyer

METAR: ESKN 240350Z 32012KT CAVOK 02/M02 Q0999

Tid: 06:16 (04:16 UTC)

Varsel

Denne rapporten ble laget for 4 timer og 46 minutter siden, klokken 23:30 UTC
Varsel gyldig fra 24. klokken 00 UTC til 24. klokken 24 UTC
Vind 15 kt fra Nord-nordvest
Sikt 10 km eller mer
Spredte skyer i en høyde av 3500 ft
Sannsynlighet 40%
fra 24. klokken 00 UTC til 24. klokken 04 UTC
Vind 15 kt fra Nord-nordvest med vindkast opp mot 25 kt
Blir
fra 24. klokken 14 UTC til 24. klokken 17 UTC
Vind 6 kt fra Vest

TAF: ESKN 232330Z 2400/2424 33015KT 9999 SCT035 PROB40 2400/2404 33015G25KT BECMG 2414/2417 27006KT

Værobservasjoner og værvarsel for over 4000 flyplasser (METAR- og TAF-rapporter).

Tilgjengelige stasjoner er representert av de røde og gule prikkene på kartet.

Hold musepekeren over prikken for å se navnet på stasjonen.

Klikk så for å se værobservasjoner og -varsler.

For å forandre kartet kan du klikke på den grønne knappen med svart kryss for å zoome inn, på den grønne knappen med strek for å zoome ut, eller på de grønne pilene for å se tilstøtende kart.


METAR-TAF: